Hjaltland — VSTY8 — position and weather

sailwx.info

Track history (hours):
 
Tides and Currents Weather Stations Pressure Air Temp Water Temp Dewpoint Dewpoint Depression Visibility Wind Speed Wind Dir Waves Ship Positions

Hjaltland

Operator: NorthLink Orkey & Shetland Ferries Ltd

Last reported at 2018-May-27 05:13 UTC. Time now 2018-May-27 15:57 UTC.
Position N 59°55' W 001°09'.

Type: Passenger vessel. MMSI: 235450000.

Date/timePositionNaut miles runAvg speedWind from/ knotsBaromVisibWave heightAir tempDewpointWater temp
2018-May-27 05:13N 59°55' W 001°09'315.4
2018-May-27 05:00N 59°52' W 001°12'5313.2
2018-May-27 00:59N 59°11' W 002°17'612.9
2018-May-27 00:30N 59°06' W 002°24'612.5
2018-May-27 00:00N 59°01' W 002°32'814.2
2018-May-26 23:28N 59°01' W 002°47'612.3
2018-May-26 23:00N 59°00' W 002°58'0 0.3
2018-May-26 21:59N 58°60' W 002°58'714.4
2018-May-26 21:30N 58°59' W 002°45'1020.1
2018-May-26 21:00N 58°51' W 002°33'1121.8
2018-May-26 20:30N 58°41' W 002°25'8222.1
2018-May-26 16:46N 57°22' W 001°46'623.5
2018-May-26 16:30N 57°16' W 001°52'1020.4
2018-May-26 16:00N 57°09' W 002°04'1 1.4
2018-May-26 15:30N 57°09' W 002°05'0 0.0
2018-May-26 15:00N 57°09' W 002°05'0 0.0
2018-May-26 14:30N 57°09' W 002°05'0 0.0
2018-May-26 14:00N 57°09' W 002°05'0 0.0
2018-May-26 13:30N 57°09' W 002°05'0 0.0
2018-May-26 13:01N 57°09' W 002°05'0 0.0
2018-May-26 12:31N 57°09' W 002°05'0 0.0
2018-May-26 12:01N 57°09' W 002°05'0 0.0
2018-May-26 11:31N 57°09' W 002°05'0 0.0
2018-May-26 11:00N 57°09' W 002°05'0 0.0
2018-May-26 10:30N 57°09' W 002°05'0 0.0
2018-May-26 10:00N 57°09' W 002°05'0 0.0
2018-May-26 09:31N 57°09' W 002°05'0 0.0
2018-May-26 09:00N 57°09' W 002°05'0 0.0
2018-May-26 08:31N 57°09' W 002°05'0 0.0
2018-May-26 08:00N 57°09' W 002°05'0 0.0
2018-May-26 07:31N 57°09' W 002°05'0 0.0
2018-May-26 07:00N 57°09' W 002°05'0 0.0
2018-May-26 06:31N 57°09' W 002°05'1 0.5
2018-May-26 05:30N 57°09' W 002°05'611.3
2018-May-26 05:01N 57°12' W 001°57'10919.9
2018-May-25 23:32N 58°59' W 002°39'121.5
2018-May-25 23:30N 58°60' W 002°39'918.6
2018-May-25 23:00N 59°01' W 002°57'1 1.1
2018-May-25 21:38N 58°60' W 002°58'1 5.6
2018-May-25 21:30N 59°01' W 002°58'918.6
2018-May-25 21:00N 59°01' W 002°40'7 0.3
2018-May-25 00:19N 59°04' W 002°28'514.4
2018-May-24 23:56N 59°00' W 002°37'715.1
2018-May-24 23:30N 59°00' W 002°49'5 3.0
2018-May-24 21:57N 58°60' W 002°58'612.9
2018-May-24 21:30N 59°00' W 002°47'9022.4
2018-May-24 17:29N 57°37' W 001°41'1123.1
2018-May-24 17:00N 57°26' W 001°42'1223.6
2018-May-24 16:31N 57°16' W 001°54'918.9
2018-May-24 16:01N 57°08' W 002°04'1 1.1
2018-May-24 15:29N 57°09' W 002°05'0 0.0
2018-May-24 14:59N 57°09' W 002°05'0 0.0
2018-May-24 14:29N 57°09' W 002°05'0 0.0
2018-May-24 13:59N 57°09' W 002°05'0 0.0
2018-May-24 13:29N 57°09' W 002°05'0 0.0
2018-May-24 08:59N 57°09' W 002°05'0 0.0
2018-May-24 08:29N 57°09' W 002°05'0 0.0
2018-May-24 07:59N 57°09' W 002°05'0 0.0
2018-May-24 07:29N 57°09' W 002°05'0 0.0
2018-May-24 06:59N 57°09' W 002°05'0 0.0
2018-May-24 06:29N 57°09' W 002°05'0 0.0
2018-May-24 05:59N 57°09' W 002°05'0 0.9
2018-May-24 05:31N 57°09' W 002°05'611.2
2018-May-24 05:00N 57°12' W 001°57'815.1
2018-May-24 04:29N 57°18' W 001°48'10220.2
2018-May-23 23:28N 58°57' W 002°37'920.6
2018-May-23 23:00N 59°01' W 002°53'3 1.7
2018-May-23 21:22N 58°60' W 002°58'412.1
2018-May-23 21:00N 59°01' W 002°50'12 0.6
2018-May-23 00:47N 59°04' W 002°28'716.1
2018-May-23 00:23N 59°01' W 002°39'616.9
2018-May-23 00:01N 59°01' W 002°52'4 1.9
2018-May-22 22:11N 58°60' W 002°58'1 7.8
2018-May-22 22:00N 59°01' W 002°57'1121.8
2018-May-22 21:30N 58°56' W 002°38'9921.3
2018-May-22 16:51N 57°21' W 001°46'721.8
2018-May-22 16:30N 57°15' W 001°54'917.2
2018-May-22 16:00N 57°09' W 002°05'0 0.9
2018-May-22 15:28N 57°09' W 002°05'0 0.0
2018-May-22 14:58N 57°09' W 002°05'0 0.0
2018-May-22 14:28N 57°09' W 002°05'0 0.0
2018-May-22 13:58N 57°09' W 002°05'0 0.0
2018-May-22 13:28N 57°09' W 002°05'0 0.0
2018-May-22 12:58N 57°09' W 002°05'0 0.0
2018-May-22 12:28N 57°09' W 002°05'0 0.0
2018-May-22 11:58N 57°09' W 002°05'0 0.0
2018-May-22 11:28N 57°09' W 002°05'0 0.0
2018-May-22 10:55N 57°09' W 002°05'0 0.0
2018-May-22 10:28N 57°09' W 002°05'0 0.0
2018-May-22 09:58N 57°09' W 002°05'0 0.0
2018-May-22 09:28N 57°09' W 002°05'0 0.0
2018-May-22 08:58N 57°09' W 002°05'0 0.0
2018-May-22 08:28N 57°09' W 002°05'0 0.0
2018-May-22 07:58N 57°09' W 002°05'0 0.0
2018-May-22 07:28N 57°09' W 002°05'0 0.0
2018-May-22 06:58N 57°09' W 002°05'0 0.0
2018-May-22 06:28N 57°09' W 002°05'0 0.0
2018-May-22 05:58N 57°09' W 002°05'0 1.0
2018-May-22 05:31N 57°09' W 002°05'611.3
2018-May-22 05:00N 57°12' W 001°57'10719.3
2018-May-21 23:26N 58°57' W 002°39'819.0
2018-May-21 23:00N 59°01' W 002°53'3 1.8
2018-May-21 21:30N 58°60' W 002°58'714.6
2018-May-21 21:00N 59°01' W 002°45'10 0.5
2018-May-21 00:17N 59°04' W 002°27'312.3
2018-May-21 00:00N 59°02' W 002°31'612.4
2018-May-20 23:31N 59°00' W 002°43'714.4
2018-May-20 23:00N 59°01' W 002°57'2 1.5
2018-May-20 21:57N 58°60' W 002°58'511.7
2018-May-20 21:30N 59°00' W 002°48'9422.9
2018-May-20 17:25N 57°34' W 001°40'1521.0
2018-May-20 16:41N 57°19' W 001°47'421.8
2018-May-20 16:30N 57°16' W 001°51'1020.0
2018-May-20 16:00N 57°09' W 002°04'1 1.4
2018-May-20 15:29N 57°09' W 002°05'0 0.0
2018-May-20 14:59N 57°09' W 002°05'0 0.0
2018-May-20 14:29N 57°09' W 002°05'0 0.0
2018-May-20 13:59N 57°09' W 002°05'0 0.0
2018-May-20 13:29N 57°09' W 002°05'0 0.0
2018-May-20 12:59N 57°09' W 002°05'0 0.0
2018-May-20 12:29N 57°09' W 002°05'0 0.0
2018-May-20 11:59N 57°09' W 002°05'0 0.0
2018-May-20 11:29N 57°09' W 002°05'0 0.0
2018-May-20 10:59N 57°09' W 002°05'0 0.0
2018-May-20 10:29N 57°09' W 002°05'0 0.0
2018-May-20 09:56N 57°09' W 002°05'0 0.0
2018-May-20 09:29N 57°09' W 002°05'0 0.0
2018-May-20 08:59N 57°09' W 002°05'0 0.0
2018-May-20 08:29N 57°09' W 002°05'0 0.0
2018-May-20 07:59N 57°09' W 002°05'0 0.0
2018-May-20 07:29N 57°09' W 002°05'0 0.0
2018-May-20 06:59N 57°09' W 002°05'0 0.0
2018-May-20 06:29N 57°09' W 002°05'0 0.0
2018-May-20 05:59N 57°09' W 002°05'0 1.0
2018-May-20 05:30N 57°09' W 002°05'510.8
2018-May-20 05:00N 57°12' W 001°57'2213.3
2018-May-20 03:23N 57°31' W 001°38'1 0.0
2018-May-18 19:36N 57°33' W 001°39'218.7
2018-May-18 19:31N 57°31' W 001°39'1418.1
2018-May-18 18:43N 57°18' W 001°50'417.9
2018-May-18 18:31N 57°15' W 001°54'816.0
2018-May-18 18:01N 57°09' W 002°03'1 1.9
2018-May-18 17:28N 57°09' W 002°05'0 0.0
2018-May-18 16:58N 57°09' W 002°05'0 0.0
2018-May-18 16:28N 57°09' W 002°05'0 0.0
2018-May-18 15:58N 57°09' W 002°05'0 0.0
2018-May-18 15:28N 57°09' W 002°05'0 0.0
2018-May-18 14:58N 57°09' W 002°05'0 0.0
2018-May-18 14:28N 57°09' W 002°05'0 0.0
2018-May-18 13:58N 57°09' W 002°05'0 0.0
2018-May-18 13:28N 57°09' W 002°05'0 0.0
2018-May-18 12:58N 57°09' W 002°05'0 0.0
2018-May-18 12:28N 57°09' W 002°05'0 0.0
2018-May-18 11:58N 57°09' W 002°05'0 0.0
2018-May-18 11:28N 57°09' W 002°05'0 0.0
2018-May-18 10:58N 57°09' W 002°05'0 0.0
2018-May-18 10:28N 57°09' W 002°05'0 0.0
2018-May-18 09:58N 57°09' W 002°05'0 0.0
2018-May-18 09:28N 57°09' W 002°05'0 0.0
2018-May-18 08:58N 57°09' W 002°05'0 0.0
2018-May-18 08:28N 57°09' W 002°05'0 0.0
2018-May-18 07:58N 57°09' W 002°05'0 0.0
2018-May-18 07:28N 57°09' W 002°05'0 0.0
2018-May-18 06:58N 57°09' W 002°05'0 0.0
2018-May-18 06:28N 57°09' W 002°05'0 0.0
2018-May-18 05:58N 57°09' W 002°05'0 1.0
2018-May-18 05:31N 57°09' W 002°05'611.9
2018-May-18 05:00N 57°13' W 001°57'713.1
2018-May-18 04:30N 57°18' W 001°50'  
Track history (hours):
 
Tides and Currents Weather Stations Pressure Air Temp Water Temp Dewpoint Dewpoint Depression Visibility Wind Speed Wind Dir Waves Ship Positions

Hjaltland

Operator: NorthLink Orkey & Shetland Ferries Ltd

Last reported at 2018-May-27 05:13 UTC. Time now 2018-May-27 15:57 UTC.
Position N 59°55' W 001°09'.

Type: Passenger vessel. MMSI: 235450000.

Date/timePositionNaut miles runAvg speedWind from/ knotsBaromVisibWave heightAir tempDewpointWater temp
2018-May-27 05:13N 59°55' W 001°09'315.4
2018-May-27 05:00N 59°52' W 001°12'5313.2
2018-May-27 00:59N 59°11' W 002°17'612.9
2018-May-27 00:30N 59°06' W 002°24'612.5
2018-May-27 00:00N 59°01' W 002°32'814.2
2018-May-26 23:28N 59°01' W 002°47'612.3
2018-May-26 23:00N 59°00' W 002°58'0 0.3
2018-May-26 21:59N 58°60' W 002°58'714.4
2018-May-26 21:30N 58°59' W 002°45'1020.1
2018-May-26 21:00N 58°51' W 002°33'1121.8
2018-May-26 20:30N 58°41' W 002°25'8222.1
2018-May-26 16:46N 57°22' W 001°46'623.5
2018-May-26 16:30N 57°16' W 001°52'1020.4
2018-May-26 16:00N 57°09' W 002°04'1 1.4
2018-May-26 15:30N 57°09' W 002°05'0 0.0
2018-May-26 15:00N 57°09' W 002°05'0 0.0
2018-May-26 14:30N 57°09' W 002°05'0 0.0
2018-May-26 14:00N 57°09' W 002°05'0 0.0
2018-May-26 13:30N 57°09' W 002°05'0 0.0
2018-May-26 13:01N 57°09' W 002°05'0 0.0
2018-May-26 12:31N 57°09' W 002°05'0 0.0
2018-May-26 12:01N 57°09' W 002°05'0 0.0
2018-May-26 11:31N 57°09' W 002°05'0 0.0
2018-May-26 11:00N 57°09' W 002°05'0 0.0
2018-May-26 10:30N 57°09' W 002°05'0 0.0
2018-May-26 10:00N 57°09' W 002°05'0 0.0
2018-May-26 09:31N 57°09' W 002°05'0 0.0
2018-May-26 09:00N 57°09' W 002°05'0 0.0
2018-May-26 08:31N 57°09' W 002°05'0 0.0
2018-May-26 08:00N 57°09' W 002°05'0 0.0
2018-May-26 07:31N 57°09' W 002°05'0 0.0
2018-May-26 07:00N 57°09' W 002°05'0 0.0
2018-May-26 06:31N 57°09' W 002°05'1 0.5
2018-May-26 05:30N 57°09' W 002°05'611.3
2018-May-26 05:01N 57°12' W 001°57'10919.9
2018-May-25 23:32N 58°59' W 002°39'121.5
2018-May-25 23:30N 58°60' W 002°39'918.6
2018-May-25 23:00N 59°01' W 002°57'1 1.1
2018-May-25 21:38N 58°60' W 002°58'1 5.6
2018-May-25 21:30N 59°01' W 002°58'918.6
2018-May-25 21:00N 59°01' W 002°40'7 0.3
2018-May-25 00:19N 59°04' W 002°28'514.4
2018-May-24 23:56N 59°00' W 002°37'715.1
2018-May-24 23:30N 59°00' W 002°49'5 3.0
2018-May-24 21:57N 58°60' W 002°58'612.9
2018-May-24 21:30N 59°00' W 002°47'9022.4
2018-May-24 17:29N 57°37' W 001°41'1123.1
2018-May-24 17:00N 57°26' W 001°42'1223.6
2018-May-24 16:31N 57°16' W 001°54'918.9
2018-May-24 16:01N 57°08' W 002°04'1 1.1
2018-May-24 15:29N 57°09' W 002°05'0 0.0
2018-May-24 14:59N 57°09' W 002°05'0 0.0
2018-May-24 14:29N 57°09' W 002°05'0 0.0
2018-May-24 13:59N 57°09' W 002°05'0 0.0
2018-May-24 13:29N 57°09' W 002°05'0 0.0
2018-May-24 08:59N 57°09' W 002°05'0 0.0
2018-May-24 08:29N 57°09' W 002°05'0 0.0
2018-May-24 07:59N 57°09' W 002°05'0 0.0
2018-May-24 07:29N 57°09' W 002°05'0 0.0
2018-May-24 06:59N 57°09' W 002°05'0 0.0
2018-May-24 06:29N 57°09' W 002°05'0 0.0
2018-May-24 05:59N 57°09' W 002°05'0 0.9
2018-May-24 05:31N 57°09' W 002°05'611.2
2018-May-24 05:00N 57°12' W 001°57'815.1
2018-May-24 04:29N 57°18' W 001°48'10220.2
2018-May-23 23:28N 58°57' W 002°37'920.6
2018-May-23 23:00N 59°01' W 002°53'3 1.7
2018-May-23 21:22N 58°60' W 002°58'412.1
2018-May-23 21:00N 59°01' W 002°50'12 0.6
2018-May-23 00:47N 59°04' W 002°28'716.1
2018-May-23 00:23N 59°01' W 002°39'616.9
2018-May-23 00:01N 59°01' W 002°52'4 1.9
2018-May-22 22:11N 58°60' W 002°58'1 7.8
2018-May-22 22:00N 59°01' W 002°57'1121.8
2018-May-22 21:30N 58°56' W 002°38'9921.3
2018-May-22 16:51N 57°21' W 001°46'721.8
2018-May-22 16:30N 57°15' W 001°54'917.2
2018-May-22 16:00N 57°09' W 002°05'0 0.9
2018-May-22 15:28N 57°09' W 002°05'0 0.0
2018-May-22 14:58N 57°09' W 002°05'0 0.0
2018-May-22 14:28N 57°09' W 002°05'0 0.0
2018-May-22 13:58N 57°09' W 002°05'0 0.0
2018-May-22 13:28N 57°09' W 002°05'0 0.0
2018-May-22 12:58N 57°09' W 002°05'0 0.0
2018-May-22 12:28N 57°09' W 002°05'0 0.0
2018-May-22 11:58N 57°09' W 002°05'0 0.0
2018-May-22 11:28N 57°09' W 002°05'0 0.0
2018-May-22 10:55N 57°09' W 002°05'0 0.0
2018-May-22 10:28N 57°09' W 002°05'0 0.0
2018-May-22 09:58N 57°09' W 002°05'0 0.0
2018-May-22 09:28N 57°09' W 002°05'0 0.0
2018-May-22 08:58N 57°09' W 002°05'0 0.0
2018-May-22 08:28N 57°09' W 002°05'0 0.0
2018-May-22 07:58N 57°09' W 002°05'0 0.0
2018-May-22 07:28N 57°09' W 002°05'0 0.0
2018-May-22 06:58N 57°09' W 002°05'0 0.0
2018-May-22 06:28N 57°09' W 002°05'0 0.0
2018-May-22 05:58N 57°09' W 002°05'0 1.0
2018-May-22 05:31N 57°09' W 002°05'611.3
2018-May-22 05:00N 57°12' W 001°57'10719.3
2018-May-21 23:26N 58°57' W 002°39'819.0
2018-May-21 23:00N 59°01' W 002°53'3 1.8
2018-May-21 21:30N 58°60' W 002°58'714.6
2018-May-21 21:00N 59°01' W 002°45'10 0.5
2018-May-21 00:17N 59°04' W 002°27'312.3
2018-May-21 00:00N 59°02' W 002°31'612.4
2018-May-20 23:31N 59°00' W 002°43'714.4
2018-May-20 23:00N 59°01' W 002°57'2 1.5
2018-May-20 21:57N 58°60' W 002°58'511.7
2018-May-20 21:30N 59°00' W 002°48'9422.9
2018-May-20 17:25N 57°34' W 001°40'1521.0
2018-May-20 16:41N 57°19' W 001°47'421.8
2018-May-20 16:30N 57°16' W 001°51'1020.0
2018-May-20 16:00N 57°09' W 002°04'1 1.4
2018-May-20 15:29N 57°09' W 002°05'0 0.0
2018-May-20 14:59N 57°09' W 002°05'0 0.0
2018-May-20 14:29N 57°09' W 002°05'0 0.0
2018-May-20 13:59N 57°09' W 002°05'0 0.0
2018-May-20 13:29N 57°09' W 002°05'0 0.0
2018-May-20 12:59N 57°09' W 002°05'0 0.0
2018-May-20 12:29N 57°09' W 002°05'0 0.0
2018-May-20 11:59N 57°09' W 002°05'0 0.0
2018-May-20 11:29N 57°09' W 002°05'0 0.0
2018-May-20 10:59N 57°09' W 002°05'0 0.0
2018-May-20 10:29N 57°09' W 002°05'0 0.0
2018-May-20 09:56N 57°09' W 002°05'0 0.0
2018-May-20 09:29N 57°09' W 002°05'0 0.0
2018-May-20 08:59N 57°09' W 002°05'0 0.0
2018-May-20 08:29N 57°09' W 002°05'0 0.0
2018-May-20 07:59N 57°09' W 002°05'0 0.0
2018-May-20 07:29N 57°09' W 002°05'0 0.0
2018-May-20 06:59N 57°09' W 002°05'0 0.0
2018-May-20 06:29N 57°09' W 002°05'0 0.0
2018-May-20 05:59N 57°09' W 002°05'0 1.0
2018-May-20 05:30N 57°09' W 002°05'510.8
2018-May-20 05:00N 57°12' W 001°57'2213.3
2018-May-20 03:23N 57°31' W 001°38'1 0.0
2018-May-18 19:36N 57°33' W 001°39'218.7
2018-May-18 19:31N 57°31' W 001°39'1418.1
2018-May-18 18:43N 57°18' W 001°50'417.9
2018-May-18 18:31N 57°15' W 001°54'816.0
2018-May-18 18:01N 57°09' W 002°03'1 1.9
2018-May-18 17:28N 57°09' W 002°05'0 0.0
2018-May-18 16:58N 57°09' W 002°05'0 0.0
2018-May-18 16:28N 57°09' W 002°05'0 0.0
2018-May-18 15:58N 57°09' W 002°05'0 0.0
2018-May-18 15:28N 57°09' W 002°05'0 0.0
2018-May-18 14:58N 57°09' W 002°05'0 0.0
2018-May-18 14:28N 57°09' W 002°05'0 0.0
2018-May-18 13:58N 57°09' W 002°05'0 0.0
2018-May-18 13:28N 57°09' W 002°05'0 0.0
2018-May-18 12:58N 57°09' W 002°05'0 0.0
2018-May-18 12:28N 57°09' W 002°05'0 0.0
2018-May-18 11:58N 57°09' W 002°05'0 0.0
2018-May-18 11:28N 57°09' W 002°05'0 0.0
2018-May-18 10:58N 57°09' W 002°05'0 0.0
2018-May-18 10:28N 57°09' W 002°05'0 0.0
2018-May-18 09:58N 57°09' W 002°05'0 0.0
2018-May-18 09:28N 57°09' W 002°05'0 0.0
2018-May-18 08:58N 57°09' W 002°05'0 0.0
2018-May-18 08:28N 57°09' W 002°05'0 0.0
2018-May-18 07:58N 57°09' W 002°05'0 0.0
2018-May-18 07:28N 57°09' W 002°05'0 0.0
2018-May-18 06:58N 57°09' W 002°05'0 0.0
2018-May-18 06:28N 57°09' W 002°05'0 0.0
2018-May-18 05:58N 57°09' W 002°05'0 1.0
2018-May-18 05:31N 57°09' W 002°05'611.9
2018-May-18 05:00N 57°13' W 001°57'713.1
2018-May-18 04:30N 57°18' W 001°50'  

Dump ship's entire track history